sensor_id;sensor_type;location;lat;lon;timestamp;temperature;humidity
14908;DHT22;7545;52.092;7.006;2023-08-08T00:00:54;15.40;99.90
14908;DHT22;7545;52.092;7.006;2023-08-08T00:03:20;15.40;99.90
14908;DHT22;7545;52.092;7.006;2023-08-08T00:05:45;15.40;99.90
14908;DHT22;7545;52.092;7.006;2023-08-08T00:08:11;15.30;99.90
14908;DHT22;7545;52.092;7.006;2023-08-08T00:10:36;15.40;99.90
14908;DHT22;7545;52.092;7.006;2023-08-08T00:13:02;15.30;99.90
14908;DHT22;7545;52.092;7.006;2023-08-08T00:15:28;15.40;99.90
14908;DHT22;7545;52.092;7.006;2023-08-08T00:17:53;15.40;99.90
14908;DHT22;7545;52.092;7.006;2023-08-08T00:20:19;15.40;99.90
14908;DHT22;7545;52.092;7.006;2023-08-08T00:22:44;15.40;99.90
14908;DHT22;7545;52.092;7.006;2023-08-08T00:25:10;15.40;99.90
14908;DHT22;7545;52.092;7.006;2023-08-08T00:27:36;15.40;99.90
14908;DHT22;7545;52.092;7.006;2023-08-08T00:30:07;15.40;99.90
14908;DHT22;7545;52.092;7.006;2023-08-08T00:32:33;15.40;99.90
14908;DHT22;7545;52.092;7.006;2023-08-08T00:34:58;15.40;99.90
14908;DHT22;7545;52.092;7.006;2023-08-08T00:37:24;15.30;99.90
14908;DHT22;7545;52.092;7.006;2023-08-08T00:39:50;15.30;99.90
14908;DHT22;7545;52.092;7.006;2023-08-08T00:42:15;15.30;99.90
14908;DHT22;7545;52.092;7.006;2023-08-08T00:44:41;15.30;99.90
14908;DHT22;7545;52.092;7.006;2023-08-08T00:47:10;15.30;99.90
14908;DHT22;7545;52.092;7.006;2023-08-08T00:49:36;15.30;99.90
14908;DHT22;7545;52.092;7.006;2023-08-08T00:52:02;15.20;99.90
14908;DHT22;7545;52.092;7.006;2023-08-08T00:54:28;15.20;99.90
14908;DHT22;7545;52.092;7.006;2023-08-08T00:56:54;15.20;99.90
14908;DHT22;7545;52.092;7.006;2023-08-08T00:59:20;15.20;99.90
14908;DHT22;7545;52.092;7.006;2023-08-08T01:01:46;15.20;99.90
14908;DHT22;7545;52.092;7.006;2023-08-08T01:04:12;15.10;99.90
14908;DHT22;7545;52.092;7.006;2023-08-08T01:07:03;15.10;99.90
14908;DHT22;7545;52.092;7.006;2023-08-08T01:12:11;15.10;99.90
14908;DHT22;7545;52.092;7.006;2023-08-08T01:14:38;15.00;99.90
14908;DHT22;7545;52.092;7.006;2023-08-08T01:17:06;15.00;99.90
14908;DHT22;7545;52.092;7.006;2023-08-08T01:19:32;15.00;99.90
14908;DHT22;7545;52.092;7.006;2023-08-08T01:22:04;15.00;99.90
14908;DHT22;7545;52.092;7.006;2023-08-08T01:24:32;15.00;99.90
14908;DHT22;7545;52.092;7.006;2023-08-08T01:27:02;15.00;99.90
14908;DHT22;7545;52.092;7.006;2023-08-08T01:29:28;15.00;99.90
14908;DHT22;7545;52.092;7.006;2023-08-08T01:31:54;15.00;99.90
14908;DHT22;7545;52.092;7.006;2023-08-08T01:34:20;15.00;99.90
14908;DHT22;7545;52.092;7.006;2023-08-08T01:36:56;15.00;99.90
14908;DHT22;7545;52.092;7.006;2023-08-08T01:39:26;15.00;99.90
14908;DHT22;7545;52.092;7.006;2023-08-08T01:41:56;15.00;99.90
14908;DHT22;7545;52.092;7.006;2023-08-08T01:44:22;15.00;99.90
14908;DHT22;7545;52.092;7.006;2023-08-08T01:46:52;15.00;99.90
14908;DHT22;7545;52.092;7.006;2023-08-08T01:49:18;15.00;99.90
14908;DHT22;7545;52.092;7.006;2023-08-08T01:51:44;15.00;99.90
14908;DHT22;7545;52.092;7.006;2023-08-08T01:54:09;14.90;99.90
14908;DHT22;7545;52.092;7.006;2023-08-08T01:56:35;14.90;99.90
14908;DHT22;7545;52.092;7.006;2023-08-08T01:59:01;15.00;99.90
14908;DHT22;7545;52.092;7.006;2023-08-08T02:01:26;15.00;99.90
14908;DHT22;7545;52.092;7.006;2023-08-08T02:03:52;15.00;99.90
14908;DHT22;7545;52.092;7.006;2023-08-08T02:06:17;15.00;99.90
14908;DHT22;7545;52.092;7.006;2023-08-08T02:08:43;15.00;99.90
14908;DHT22;7545;52.092;7.006;2023-08-08T02:11:09;15.00;99.90
14908;DHT22;7545;52.092;7.006;2023-08-08T02:13:35;15.00;99.90
14908;DHT22;7545;52.092;7.006;2023-08-08T02:16:00;15.00;99.90
14908;DHT22;7545;52.092;7.006;2023-08-08T02:18:26;15.00;99.90
14908;DHT22;7545;52.092;7.006;2023-08-08T02:20:51;15.00;99.90
14908;DHT22;7545;52.092;7.006;2023-08-08T02:23:17;15.00;99.90
14908;DHT22;7545;52.092;7.006;2023-08-08T02:25:43;15.00;99.90
14908;DHT22;7545;52.092;7.006;2023-08-08T02:28:09;15.00;99.90
14908;DHT22;7545;52.092;7.006;2023-08-08T02:30:35;15.00;99.90
14908;DHT22;7545;52.092;7.006;2023-08-08T02:33:00;15.00;99.90
14908;DHT22;7545;52.092;7.006;2023-08-08T02:35:26;14.90;99.90
14908;DHT22;7545;52.092;7.006;2023-08-08T02:37:51;15.00;99.90
14908;DHT22;7545;52.092;7.006;2023-08-08T02:40:17;14.90;99.90
14908;DHT22;7545;52.092;7.006;2023-08-08T02:42:43;14.90;99.90
14908;DHT22;7545;52.092;7.006;2023-08-08T02:45:08;14.90;99.90
14908;DHT22;7545;52.092;7.006;2023-08-08T02:47:34;14.90;99.90
14908;DHT22;7545;52.092;7.006;2023-08-08T02:50:00;14.90;99.90
14908;DHT22;7545;52.092;7.006;2023-08-08T02:52:25;14.90;99.90
14908;DHT22;7545;52.092;7.006;2023-08-08T02:54:51;14.90;99.90
14908;DHT22;7545;52.092;7.006;2023-08-08T02:57:17;15.00;99.90
14908;DHT22;7545;52.092;7.006;2023-08-08T02:59:42;14.90;99.90
14908;DHT22;7545;52.092;7.006;2023-08-08T03:02:08;14.90;99.90
14908;DHT22;7545;52.092;7.006;2023-08-08T03:04:33;14.90;99.90
14908;DHT22;7545;52.092;7.006;2023-08-08T03:06:59;14.90;99.90
14908;DHT22;7545;52.092;7.006;2023-08-08T03:09:28;14.80;99.90
14908;DHT22;7545;52.092;7.006;2023-08-08T03:11:53;14.90;99.90
14908;DHT22;7545;52.092;7.006;2023-08-08T03:14:19;14.90;99.90
14908;DHT22;7545;52.092;7.006;2023-08-08T03:16:45;14.90;99.90
14908;DHT22;7545;52.092;7.006;2023-08-08T03:19:10;14.90;99.90
14908;DHT22;7545;52.092;7.006;2023-08-08T03:21:36;14.80;99.90
14908;DHT22;7545;52.092;7.006;2023-08-08T03:24:01;14.80;99.90
14908;DHT22;7545;52.092;7.006;2023-08-08T03:26:27;14.80;99.90
14908;DHT22;7545;52.092;7.006;2023-08-08T03:28:52;14.80;99.90
14908;DHT22;7545;52.092;7.006;2023-08-08T03:31:19;14.80;99.90
14908;DHT22;7545;52.092;7.006;2023-08-08T03:33:45;14.80;99.90
14908;DHT22;7545;52.092;7.006;2023-08-08T03:36:11;14.80;99.90
14908;DHT22;7545;52.092;7.006;2023-08-08T03:38:37;14.80;99.90
14908;DHT22;7545;52.092;7.006;2023-08-08T03:41:03;14.80;99.90
14908;DHT22;7545;52.092;7.006;2023-08-08T03:43:29;14.80;99.90
14908;DHT22;7545;52.092;7.006;2023-08-08T03:45:55;14.80;99.90
14908;DHT22;7545;52.092;7.006;2023-08-08T03:48:20;14.80;99.90
14908;DHT22;7545;52.092;7.006;2023-08-08T03:50:46;14.80;99.90
14908;DHT22;7545;52.092;7.006;2023-08-08T03:53:12;14.80;99.90
14908;DHT22;7545;52.092;7.006;2023-08-08T03:55:38;14.80;99.90
14908;DHT22;7545;52.092;7.006;2023-08-08T03:58:04;14.80;99.90
14908;DHT22;7545;52.092;7.006;2023-08-08T04:00:31;14.80;99.90
14908;DHT22;7545;52.092;7.006;2023-08-08T04:02:56;14.80;99.90
14908;DHT22;7545;52.092;7.006;2023-08-08T04:05:22;14.80;99.90
14908;DHT22;7545;52.092;7.006;2023-08-08T04:07:48;14.80;99.90
14908;DHT22;7545;52.092;7.006;2023-08-08T04:10:13;14.80;99.90
14908;DHT22;7545;52.092;7.006;2023-08-08T04:12:39;14.80;99.90
14908;DHT22;7545;52.092;7.006;2023-08-08T04:15:05;14.80;99.90
14908;DHT22;7545;52.092;7.006;2023-08-08T04:17:30;14.80;99.90
14908;DHT22;7545;52.092;7.006;2023-08-08T04:19:56;14.80;99.90
14908;DHT22;7545;52.092;7.006;2023-08-08T04:22:22;14.80;99.90
14908;DHT22;7545;52.092;7.006;2023-08-08T04:24:47;14.80;99.90
14908;DHT22;7545;52.092;7.006;2023-08-08T04:27:13;14.80;99.90
14908;DHT22;7545;52.092;7.006;2023-08-08T04:29:39;14.80;99.90
14908;DHT22;7545;52.092;7.006;2023-08-08T04:32:04;14.80;99.90
14908;DHT22;7545;52.092;7.006;2023-08-08T04:34:30;14.80;99.90
14908;DHT22;7545;52.092;7.006;2023-08-08T04:36:56;14.90;99.90
14908;DHT22;7545;52.092;7.006;2023-08-08T04:39:21;14.80;99.90
14908;DHT22;7545;52.092;7.006;2023-08-08T04:41:47;14.80;99.90
14908;DHT22;7545;52.092;7.006;2023-08-08T04:44:12;14.80;99.90
14908;DHT22;7545;52.092;7.006;2023-08-08T04:46:38;14.80;99.90
14908;DHT22;7545;52.092;7.006;2023-08-08T04:49:03;14.80;99.90
14908;DHT22;7545;52.092;7.006;2023-08-08T04:51:29;14.80;99.90
14908;DHT22;7545;52.092;7.006;2023-08-08T04:53:55;14.80;99.90
14908;DHT22;7545;52.092;7.006;2023-08-08T04:56:20;14.90;99.90
14908;DHT22;7545;52.092;7.006;2023-08-08T04:58:46;14.90;99.90
14908;DHT22;7545;52.092;7.006;2023-08-08T05:01:11;14.90;99.90
14908;DHT22;7545;52.092;7.006;2023-08-08T05:03:40;14.80;99.90
14908;DHT22;7545;52.092;7.006;2023-08-08T05:06:05;14.80;99.90
14908;DHT22;7545;52.092;7.006;2023-08-08T05:08:31;14.80;99.90
14908;DHT22;7545;52.092;7.006;2023-08-08T05:10:56;14.80;99.90
14908;DHT22;7545;52.092;7.006;2023-08-08T05:13:22;14.80;99.90
14908;DHT22;7545;52.092;7.006;2023-08-08T05:15:48;14.80;99.90
14908;DHT22;7545;52.092;7.006;2023-08-08T05:18:13;14.90;99.90
14908;DHT22;7545;52.092;7.006;2023-08-08T05:20:39;14.90;99.90
14908;DHT22;7545;52.092;7.006;2023-08-08T05:23:04;14.90;99.90
14908;DHT22;7545;52.092;7.006;2023-08-08T05:25:30;14.80;99.90
14908;DHT22;7545;52.092;7.006;2023-08-08T05:27:56;14.90;99.90
14908;DHT22;7545;52.092;7.006;2023-08-08T05:30:22;14.90;99.90
14908;DHT22;7545;52.092;7.006;2023-08-08T05:32:47;14.90;99.90
14908;DHT22;7545;52.092;7.006;2023-08-08T05:35:13;14.90;99.90
14908;DHT22;7545;52.092;7.006;2023-08-08T05:37:39;14.90;99.90
14908;DHT22;7545;52.092;7.006;2023-08-08T05:40:05;15.00;99.90
14908;DHT22;7545;52.092;7.006;2023-08-08T05:42:32;15.00;99.90
14908;DHT22;7545;52.092;7.006;2023-08-08T05:44:57;15.00;99.90
14908;DHT22;7545;52.092;7.006;2023-08-08T05:47:23;15.00;99.90
14908;DHT22;7545;52.092;7.006;2023-08-08T05:49:49;15.00;99.90
14908;DHT22;7545;52.092;7.006;2023-08-08T05:52:14;15.00;99.90
14908;DHT22;7545;52.092;7.006;2023-08-08T05:54:40;15.00;99.90
14908;DHT22;7545;52.092;7.006;2023-08-08T05:57:06;15.10;99.90
14908;DHT22;7545;52.092;7.006;2023-08-08T05:59:32;15.10;99.90
14908;DHT22;7545;52.092;7.006;2023-08-08T06:02:00;15.10;99.90
14908;DHT22;7545;52.092;7.006;2023-08-08T06:04:26;15.10;99.90
14908;DHT22;7545;52.092;7.006;2023-08-08T06:06:51;15.10;99.90
14908;DHT22;7545;52.092;7.006;2023-08-08T06:09:17;15.10;99.90
14908;DHT22;7545;52.092;7.006;2023-08-08T06:11:43;15.20;99.90
14908;DHT22;7545;52.092;7.006;2023-08-08T06:14:09;15.20;99.90
14908;DHT22;7545;52.092;7.006;2023-08-08T06:16:35;15.20;99.90
14908;DHT22;7545;52.092;7.006;2023-08-08T06:19:00;15.20;99.90
14908;DHT22;7545;52.092;7.006;2023-08-08T06:21:26;15.20;99.90
14908;DHT22;7545;52.092;7.006;2023-08-08T06:23:52;15.20;99.90
14908;DHT22;7545;52.092;7.006;2023-08-08T06:26:21;15.30;99.90
14908;DHT22;7545;52.092;7.006;2023-08-08T06:28:46;15.30;99.90
14908;DHT22;7545;52.092;7.006;2023-08-08T06:31:13;15.30;99.90
14908;DHT22;7545;52.092;7.006;2023-08-08T06:33:39;15.40;99.90
14908;DHT22;7545;52.092;7.006;2023-08-08T06:36:04;15.40;99.90
14908;DHT22;7545;52.092;7.006;2023-08-08T06:38:30;15.40;99.90
14908;DHT22;7545;52.092;7.006;2023-08-08T06:41:02;15.40;99.90
14908;DHT22;7545;52.092;7.006;2023-08-08T06:43:28;15.40;99.90
14908;DHT22;7545;52.092;7.006;2023-08-08T06:45:54;15.50;99.90
14908;DHT22;7545;52.092;7.006;2023-08-08T06:48:20;15.50;99.90
14908;DHT22;7545;52.092;7.006;2023-08-08T06:50:46;15.50;99.90
14908;DHT22;7545;52.092;7.006;2023-08-08T06:53:11;15.50;99.90
14908;DHT22;7545;52.092;7.006;2023-08-08T06:55:37;15.50;99.90
14908;DHT22;7545;52.092;7.006;2023-08-08T06:58:03;15.50;99.90
14908;DHT22;7545;52.092;7.006;2023-08-08T07:00:28;15.60;99.90
14908;DHT22;7545;52.092;7.006;2023-08-08T07:02:55;15.60;99.90
14908;DHT22;7545;52.092;7.006;2023-08-08T07:05:20;15.60;99.90
14908;DHT22;7545;52.092;7.006;2023-08-08T07:07:49;15.60;99.90
14908;DHT22;7545;52.092;7.006;2023-08-08T07:10:15;15.60;99.90
14908;DHT22;7545;52.092;7.006;2023-08-08T07:12:41;15.60;99.90
14908;DHT22;7545;52.092;7.006;2023-08-08T07:15:07;15.70;99.90
14908;DHT22;7545;52.092;7.006;2023-08-08T07:17:33;15.70;99.90
14908;DHT22;7545;52.092;7.006;2023-08-08T07:19:59;15.70;99.90
14908;DHT22;7545;52.092;7.006;2023-08-08T07:22:25;15.80;99.90
14908;DHT22;7545;52.092;7.006;2023-08-08T07:24:51;15.80;99.90
14908;DHT22;7545;52.092;7.006;2023-08-08T07:27:16;15.90;99.90
14908;DHT22;7545;52.092;7.006;2023-08-08T07:29:42;15.90;99.90
14908;DHT22;7545;52.092;7.006;2023-08-08T07:32:08;15.90;99.90
14908;DHT22;7545;52.092;7.006;2023-08-08T07:34:33;16.00;99.90
14908;DHT22;7545;52.092;7.006;2023-08-08T07:36:59;16.00;99.90
14908;DHT22;7545;52.092;7.006;2023-08-08T07:39:25;16.00;99.90
14908;DHT22;7545;52.092;7.006;2023-08-08T07:41:51;16.10;99.90
14908;DHT22;7545;52.092;7.006;2023-08-08T07:44:17;16.10;99.90
14908;DHT22;7545;52.092;7.006;2023-08-08T07:46:42;16.10;99.90
14908;DHT22;7545;52.092;7.006;2023-08-08T07:49:08;16.20;99.90
14908;DHT22;7545;52.092;7.006;2023-08-08T07:51:35;16.20;99.90
14908;DHT22;7545;52.092;7.006;2023-08-08T07:54:00;16.30;99.90
14908;DHT22;7545;52.092;7.006;2023-08-08T07:56:26;16.30;99.90
14908;DHT22;7545;52.092;7.006;2023-08-08T07:58:51;16.30;99.90
14908;DHT22;7545;52.092;7.006;2023-08-08T08:01:17;16.30;99.90
14908;DHT22;7545;52.092;7.006;2023-08-08T08:03:44;16.40;99.90
14908;DHT22;7545;52.092;7.006;2023-08-08T08:06:09;16.50;99.90
14908;DHT22;7545;52.092;7.006;2023-08-08T08:08:35;16.50;99.90
14908;DHT22;7545;52.092;7.006;2023-08-08T08:11:02;16.50;99.90
14908;DHT22;7545;52.092;7.006;2023-08-08T08:13:27;16.50;99.90
14908;DHT22;7545;52.092;7.006;2023-08-08T08:15:53;16.60;99.90
14908;DHT22;7545;52.092;7.006;2023-08-08T08:18:18;16.60;99.90
14908;DHT22;7545;52.092;7.006;2023-08-08T08:20:46;16.60;99.90
14908;DHT22;7545;52.092;7.006;2023-08-08T08:23:11;16.70;99.90
14908;DHT22;7545;52.092;7.006;2023-08-08T08:25:38;16.70;99.90
14908;DHT22;7545;52.092;7.006;2023-08-08T08:28:04;16.70;99.90
14908;DHT22;7545;52.092;7.006;2023-08-08T08:30:30;16.60;99.90
14908;DHT22;7545;52.092;7.006;2023-08-08T08:32:56;16.70;99.90
14908;DHT22;7545;52.092;7.006;2023-08-08T08:35:25;16.70;99.90
14908;DHT22;7545;52.092;7.006;2023-08-08T08:37:51;16.80;99.90
14908;DHT22;7545;52.092;7.006;2023-08-08T08:40:17;16.80;99.90
14908;DHT22;7545;52.092;7.006;2023-08-08T08:42:43;16.70;99.90
14908;DHT22;7545;52.092;7.006;2023-08-08T08:45:11;16.70;99.90
14908;DHT22;7545;52.092;7.006;2023-08-08T08:47:40;16.80;99.90
14908;DHT22;7545;52.092;7.006;2023-08-08T08:50:07;16.90;99.90
14908;DHT22;7545;52.092;7.006;2023-08-08T08:52:32;16.90;99.90
14908;DHT22;7545;52.092;7.006;2023-08-08T08:54:58;17.00;99.90
14908;DHT22;7545;52.092;7.006;2023-08-08T08:57:24;17.00;99.90
14908;DHT22;7545;52.092;7.006;2023-08-08T08:59:51;17.10;99.90
14908;DHT22;7545;52.092;7.006;2023-08-08T09:02:17;17.20;99.90
14908;DHT22;7545;52.092;7.006;2023-08-08T09:04:45;17.20;99.90
14908;DHT22;7545;52.092;7.006;2023-08-08T09:07:11;17.30;99.90
14908;DHT22;7545;52.092;7.006;2023-08-08T09:09:38;17.30;99.90
14908;DHT22;7545;52.092;7.006;2023-08-08T09:12:04;17.30;99.90
14908;DHT22;7545;52.092;7.006;2023-08-08T09:14:33;17.40;99.90
14908;DHT22;7545;52.092;7.006;2023-08-08T09:16:58;17.40;99.90
14908;DHT22;7545;52.092;7.006;2023-08-08T09:19:24;17.40;99.90
14908;DHT22;7545;52.092;7.006;2023-08-08T09:21:51;17.50;99.90
14908;DHT22;7545;52.092;7.006;2023-08-08T09:24:17;17.50;99.90
14908;DHT22;7545;52.092;7.006;2023-08-08T09:26:44;17.50;99.90
14908;DHT22;7545;52.092;7.006;2023-08-08T09:29:12;17.50;99.90
14908;DHT22;7545;52.092;7.006;2023-08-08T09:31:39;17.60;99.90
14908;DHT22;7545;52.092;7.006;2023-08-08T09:34:05;17.60;99.90
14908;DHT22;7545;52.092;7.006;2023-08-08T09:36:31;17.70;99.90
14908;DHT22;7545;52.092;7.006;2023-08-08T09:38:57;17.70;99.90
14908;DHT22;7545;52.092;7.006;2023-08-08T09:41:23;17.80;99.90
14908;DHT22;7545;52.092;7.006;2023-08-08T09:43:53;17.90;99.90
14908;DHT22;7545;52.092;7.006;2023-08-08T09:46:19;17.90;99.90
14908;DHT22;7545;52.092;7.006;2023-08-08T09:48:46;18.00;99.90
14908;DHT22;7545;52.092;7.006;2023-08-08T09:51:12;18.00;99.90
14908;DHT22;7545;52.092;7.006;2023-08-08T09:53:39;18.00;99.90
14908;DHT22;7545;52.092;7.006;2023-08-08T09:56:06;18.10;99.90
14908;DHT22;7545;52.092;7.006;2023-08-08T09:58:32;18.10;99.90
14908;DHT22;7545;52.092;7.006;2023-08-08T10:00:58;18.20;99.90
14908;DHT22;7545;52.092;7.006;2023-08-08T10:03:25;18.20;99.90
14908;DHT22;7545;52.092;7.006;2023-08-08T10:05:55;18.10;99.90
14908;DHT22;7545;52.092;7.006;2023-08-08T10:08:20;18.10;99.90
14908;DHT22;7545;52.092;7.006;2023-08-08T10:10:48;18.10;99.90
14908;DHT22;7545;52.092;7.006;2023-08-08T10:13:21;18.10;99.90
14908;DHT22;7545;52.092;7.006;2023-08-08T10:15:47;18.20;99.90
14908;DHT22;7545;52.092;7.006;2023-08-08T10:18:13;18.30;99.90
14908;DHT22;7545;52.092;7.006;2023-08-08T10:20:42;18.30;99.90
14908;DHT22;7545;52.092;7.006;2023-08-08T10:23:09;18.40;99.90
14908;DHT22;7545;52.092;7.006;2023-08-08T10:25:34;18.40;99.90
14908;DHT22;7545;52.092;7.006;2023-08-08T10:28:11;18.50;99.90
14908;DHT22;7545;52.092;7.006;2023-08-08T10:30:43;18.60;99.90
14908;DHT22;7545;52.092;7.006;2023-08-08T10:33:19;18.70;99.90
14908;DHT22;7545;52.092;7.006;2023-08-08T10:35:57;18.90;99.90
14908;DHT22;7545;52.092;7.006;2023-08-08T10:38:24;18.90;99.90
14908;DHT22;7545;52.092;7.006;2023-08-08T10:40:58;19.00;99.90
14908;DHT22;7545;52.092;7.006;2023-08-08T10:43:30;19.00;99.90
14908;DHT22;7545;52.092;7.006;2023-08-08T10:46:01;19.00;99.90
14908;DHT22;7545;52.092;7.006;2023-08-08T10:48:27;19.10;99.90
14908;DHT22;7545;52.092;7.006;2023-08-08T10:50:58;19.20;99.90
14908;DHT22;7545;52.092;7.006;2023-08-08T10:53:28;19.20;99.90
14908;DHT22;7545;52.092;7.006;2023-08-08T10:56:02;19.30;99.90
14908;DHT22;7545;52.092;7.006;2023-08-08T10:58:39;19.30;99.90
14908;DHT22;7545;52.092;7.006;2023-08-08T11:01:06;19.30;99.90
14908;DHT22;7545;52.092;7.006;2023-08-08T11:03:36;19.30;99.90
14908;DHT22;7545;52.092;7.006;2023-08-08T11:06:02;19.30;99.90
14908;DHT22;7545;52.092;7.006;2023-08-08T11:08:30;19.30;99.90
14908;DHT22;7545;52.092;7.006;2023-08-08T11:10:56;19.30;99.90
14908;DHT22;7545;52.092;7.006;2023-08-08T11:13:22;19.30;99.90
14908;DHT22;7545;52.092;7.006;2023-08-08T11:15:48;19.30;99.90
14908;DHT22;7545;52.092;7.006;2023-08-08T11:18:13;19.30;99.90
14908;DHT22;7545;52.092;7.006;2023-08-08T11:20:39;19.40;99.90
14908;DHT22;7545;52.092;7.006;2023-08-08T11:23:05;19.40;99.90
14908;DHT22;7545;52.092;7.006;2023-08-08T11:25:35;19.50;99.90
14908;DHT22;7545;52.092;7.006;2023-08-08T11:28:02;19.50;99.90
14908;DHT22;7545;52.092;7.006;2023-08-08T11:30:30;19.50;99.90
14908;DHT22;7545;52.092;7.006;2023-08-08T11:32:56;19.40;99.90
14908;DHT22;7545;52.092;7.006;2023-08-08T11:35:22;19.40;99.90
14908;DHT22;7545;52.092;7.006;2023-08-08T11:37:50;19.40;99.90
14908;DHT22;7545;52.092;7.006;2023-08-08T11:40:17;19.40;99.90
14908;DHT22;7545;52.092;7.006;2023-08-08T11:42:43;19.40;99.90
14908;DHT22;7545;52.092;7.006;2023-08-08T11:45:13;19.50;99.90
14908;DHT22;7545;52.092;7.006;2023-08-08T11:47:42;19.50;99.90
14908;DHT22;7545;52.092;7.006;2023-08-08T11:50:09;19.50;99.90
14908;DHT22;7545;52.092;7.006;2023-08-08T11:52:38;19.50;99.90
14908;DHT22;7545;52.092;7.006;2023-08-08T11:55:06;19.50;99.90
14908;DHT22;7545;52.092;7.006;2023-08-08T11:57:33;19.40;99.90
14908;DHT22;7545;52.092;7.006;2023-08-08T11:59:59;19.30;99.90
14908;DHT22;7545;52.092;7.006;2023-08-08T12:02:26;19.30;99.90
14908;DHT22;7545;52.092;7.006;2023-08-08T12:04:52;19.30;99.90
14908;DHT22;7545;52.092;7.006;2023-08-08T12:07:18;19.40;99.90
14908;DHT22;7545;52.092;7.006;2023-08-08T12:09:47;19.40;99.90
14908;DHT22;7545;52.092;7.006;2023-08-08T12:12:13;19.50;99.90
14908;DHT22;7545;52.092;7.006;2023-08-08T12:14:41;19.50;99.90
14908;DHT22;7545;52.092;7.006;2023-08-08T12:17:09;19.50;99.90
14908;DHT22;7545;52.092;7.006;2023-08-08T12:19:35;19.50;99.90
14908;DHT22;7545;52.092;7.006;2023-08-08T12:22:01;19.60;99.90
14908;DHT22;7545;52.092;7.006;2023-08-08T12:24:27;19.70;99.90
14908;DHT22;7545;52.092;7.006;2023-08-08T12:26:52;19.70;99.90
14908;DHT22;7545;52.092;7.006;2023-08-08T12:29:18;19.80;99.90
14908;DHT22;7545;52.092;7.006;2023-08-08T12:31:43;19.80;99.90
14908;DHT22;7545;52.092;7.006;2023-08-08T12:34:09;19.90;99.90
14908;DHT22;7545;52.092;7.006;2023-08-08T12:36:35;20.00;99.90
14908;DHT22;7545;52.092;7.006;2023-08-08T12:39:01;20.10;99.90
14908;DHT22;7545;52.092;7.006;2023-08-08T12:41:26;20.10;99.90
14908;DHT22;7545;52.092;7.006;2023-08-08T12:43:55;20.30;99.90
14908;DHT22;7545;52.092;7.006;2023-08-08T12:46:20;20.40;99.90
14908;DHT22;7545;52.092;7.006;2023-08-08T12:48:46;20.50;99.90
14908;DHT22;7545;52.092;7.006;2023-08-08T12:51:11;20.60;99.90
14908;DHT22;7545;52.092;7.006;2023-08-08T12:53:37;20.80;99.90
14908;DHT22;7545;52.092;7.006;2023-08-08T12:56:03;20.90;99.90
14908;DHT22;7545;52.092;7.006;2023-08-08T12:58:29;20.90;99.90
14908;DHT22;7545;52.092;7.006;2023-08-08T13:00:54;20.80;99.90
14908;DHT22;7545;52.092;7.006;2023-08-08T13:03:20;20.80;99.90
14908;DHT22;7545;52.092;7.006;2023-08-08T13:05:46;20.60;99.90
14908;DHT22;7545;52.092;7.006;2023-08-08T13:08:12;20.50;99.90
14908;DHT22;7545;52.092;7.006;2023-08-08T13:10:39;20.40;99.90
14908;DHT22;7545;52.092;7.006;2023-08-08T13:13:05;20.30;99.90
14908;DHT22;7545;52.092;7.006;2023-08-08T13:15:30;20.20;99.90
14908;DHT22;7545;52.092;7.006;2023-08-08T13:17:56;20.20;99.90
14908;DHT22;7545;52.092;7.006;2023-08-08T13:20:21;20.20;99.90
14908;DHT22;7545;52.092;7.006;2023-08-08T13:22:47;20.30;99.90
14908;DHT22;7545;52.092;7.006;2023-08-08T13:25:13;20.40;99.90
14908;DHT22;7545;52.092;7.006;2023-08-08T13:27:38;20.40;99.90
14908;DHT22;7545;52.092;7.006;2023-08-08T13:30:06;20.40;99.90
14908;DHT22;7545;52.092;7.006;2023-08-08T13:32:32;20.50;99.90
14908;DHT22;7545;52.092;7.006;2023-08-08T13:34:58;20.60;99.90
14908;DHT22;7545;52.092;7.006;2023-08-08T13:37:23;20.60;99.90
14908;DHT22;7545;52.092;7.006;2023-08-08T13:39:49;20.80;99.90
14908;DHT22;7545;52.092;7.006;2023-08-08T13:42:14;20.80;99.90
14908;DHT22;7545;52.092;7.006;2023-08-08T13:44:40;20.90;99.90
14908;DHT22;7545;52.092;7.006;2023-08-08T13:47:06;20.90;99.90
14908;DHT22;7545;52.092;7.006;2023-08-08T13:49:31;21.00;99.90
14908;DHT22;7545;52.092;7.006;2023-08-08T13:51:57;21.10;99.90
14908;DHT22;7545;52.092;7.006;2023-08-08T13:54:23;21.10;99.90
14908;DHT22;7545;52.092;7.006;2023-08-08T13:56:49;21.10;99.90
14908;DHT22;7545;52.092;7.006;2023-08-08T13:59:15;21.30;99.90
14908;DHT22;7545;52.092;7.006;2023-08-08T14:01:40;21.20;99.90
14908;DHT22;7545;52.092;7.006;2023-08-08T14:04:09;21.20;99.90
14908;DHT22;7545;52.092;7.006;2023-08-08T14:06:35;21.20;99.90
14908;DHT22;7545;52.092;7.006;2023-08-08T14:09:00;21.20;99.90
14908;DHT22;7545;52.092;7.006;2023-08-08T14:11:26;21.10;99.90
14908;DHT22;7545;52.092;7.006;2023-08-08T14:13:52;21.10;99.90
14908;DHT22;7545;52.092;7.006;2023-08-08T14:16:17;21.20;99.90
14908;DHT22;7545;52.092;7.006;2023-08-08T14:18:43;21.20;99.90
14908;DHT22;7545;52.092;7.006;2023-08-08T14:21:08;21.20;99.90
14908;DHT22;7545;52.092;7.006;2023-08-08T14:23:34;21.10;99.90
14908;DHT22;7545;52.092;7.006;2023-08-08T14:26:00;21.10;99.90
14908;DHT22;7545;52.092;7.006;2023-08-08T14:28:25;21.00;99.90
14908;DHT22;7545;52.092;7.006;2023-08-08T14:30:54;20.90;99.90
14908;DHT22;7545;52.092;7.006;2023-08-08T14:33:19;20.80;99.90
14908;DHT22;7545;52.092;7.006;2023-08-08T14:35:45;20.80;99.90
14908;DHT22;7545;52.092;7.006;2023-08-08T14:38:10;20.60;99.90
14908;DHT22;7545;52.092;7.006;2023-08-08T14:40:36;20.50;99.90
14908;DHT22;7545;52.092;7.006;2023-08-08T14:43:02;20.40;99.90
14908;DHT22;7545;52.092;7.006;2023-08-08T14:45:27;20.30;99.90
14908;DHT22;7545;52.092;7.006;2023-08-08T14:47:53;20.30;99.90
14908;DHT22;7545;52.092;7.006;2023-08-08T14:50:19;20.30;99.90
14908;DHT22;7545;52.092;7.006;2023-08-08T14:52:45;20.40;99.90
14908;DHT22;7545;52.092;7.006;2023-08-08T14:55:10;20.30;99.90
14908;DHT22;7545;52.092;7.006;2023-08-08T14:57:36;20.40;99.90
14908;DHT22;7545;52.092;7.006;2023-08-08T15:00:02;20.40;99.90
14908;DHT22;7545;52.092;7.006;2023-08-08T15:02:29;20.40;99.90
14908;DHT22;7545;52.092;7.006;2023-08-08T15:04:54;20.40;99.90
14908;DHT22;7545;52.092;7.006;2023-08-08T15:07:20;20.40;99.90
14908;DHT22;7545;52.092;7.006;2023-08-08T15:09:46;20.40;99.90
14908;DHT22;7545;52.092;7.006;2023-08-08T15:12:15;20.40;99.90
14908;DHT22;7545;52.092;7.006;2023-08-08T15:14:41;20.50;99.90
14908;DHT22;7545;52.092;7.006;2023-08-08T15:17:07;20.50;99.90
14908;DHT22;7545;52.092;7.006;2023-08-08T15:19:32;20.50;99.90
14908;DHT22;7545;52.092;7.006;2023-08-08T15:21:58;20.50;99.90
14908;DHT22;7545;52.092;7.006;2023-08-08T15:24:23;20.40;99.90
14908;DHT22;7545;52.092;7.006;2023-08-08T15:26:49;20.30;99.90
14908;DHT22;7545;52.092;7.006;2023-08-08T15:29:15;20.30;99.90
14908;DHT22;7545;52.092;7.006;2023-08-08T15:31:40;20.30;99.90
14908;DHT22;7545;52.092;7.006;2023-08-08T15:34:06;20.30;99.90
14908;DHT22;7545;52.092;7.006;2023-08-08T15:36:31;20.30;99.90
14908;DHT22;7545;52.092;7.006;2023-08-08T15:38:57;20.30;99.90
14908;DHT22;7545;52.092;7.006;2023-08-08T15:41:23;20.30;99.90